Time;durP1;ratioP1;P1;durP2;ratioP2;P2;SDS_P1;SDS_P2;PMS_P1;PMS_P2;Temp;Humidity;BMP_temperature;BMP_pressure;BME280_temperature;BME280_humidity;BME280_pressure;Samples;Min_cycle;Max_cycle;Signal;HPM_P1;HPM_P2
2022/11/22 00:01:52;;;;;;;54.80;26.90;;;4.40;99.90;;;;;;5053386;28;20045;-78
2022/11/22 00:04:17;;;;;;;52.65;26.17;;;4.40;99.90;;;;;;5048938;28;20110;-78
2022/11/22 00:06:43;;;;;;;57.03;25.02;;;4.40;99.90;;;;;;5073674;28;20045;-78
2022/11/22 00:09:09;;;;;;;59.47;26.55;;;4.40;99.90;;;;;;5068946;28;20037;-79
2022/11/22 00:11:34;;;;;;;56.53;25.77;;;4.40;99.90;;;;;;5053690;28;20047;-79
2022/11/22 00:14:00;;;;;;;55.03;24.90;;;4.40;99.90;;;;;;5061201;28;20128;-78
2022/11/22 00:16:26;;;;;;;56.15;25.23;;;4.50;99.90;;;;;;5069303;28;20045;-78
2022/11/22 00:18:51;;;;;;;59.50;26.13;;;4.30;99.90;;;;;;5053258;28;20041;-79
2022/11/22 00:21:17;;;;;;;55.03;24.58;;;4.30;99.90;;;;;;5039642;28;20484;-78
2022/11/22 00:23:43;;;;;;;53.53;24.17;;;4.40;99.90;;;;;;5087706;28;20113;-79
2022/11/22 00:26:10;;;;;;;58.58;24.88;;;4.40;99.90;;;;;;5055789;28;20080;-79
2022/11/22 00:28:38;;;;;;;57.55;25.42;;;4.30;99.90;;;;;;5096979;28;20080;-79
2022/11/22 00:31:03;;;;;;;53.50;26.30;;;4.30;99.90;;;;;;5020099;28;20053;-80
2022/11/22 00:33:29;;;;;;;62.85;24.55;;;4.30;99.90;;;;;;5070464;28;20077;-78
2022/11/22 00:35:55;;;;;;;51.45;23.85;;;4.30;99.90;;;;;;5070590;28;20055;-79
2022/11/22 00:38:20;;;;;;;56.78;24.23;;;4.30;99.90;;;;;;5060574;28;20047;-79
2022/11/22 00:40:46;;;;;;;51.72;23.95;;;4.30;99.90;;;;;;5071705;28;20528;-78
2022/11/22 00:43:12;;;;;;;52.92;22.52;;;4.30;99.90;;;;;;5055908;28;20423;-79
2022/11/22 00:45:40;;;;;;;51.13;23.20;;;4.20;99.90;;;;;;5054830;28;20431;-78
2022/11/22 00:48:06;;;;;;;45.92;22.50;;;4.30;99.90;;;;;;5063934;28;20080;-79
2022/11/22 00:50:32;;;;;;;54.10;23.63;;;4.20;99.90;;;;;;5057062;28;20074;-79
2022/11/22 00:52:57;;;;;;;48.63;22.75;;;4.20;99.90;;;;;;5066661;28;20049;-79
2022/11/22 00:55:23;;;;;;;53.38;22.95;;;4.20;99.90;;;;;;5037371;28;20485;-79
2022/11/22 00:57:48;;;;;;;49.85;22.85;;;4.20;99.90;;;;;;5052589;28;20099;-78
2022/11/22 01:00:15;;;;;;;49.50;22.38;;;4.20;99.90;;;;;;5052753;28;20045;-78
2022/11/22 01:02:40;;;;;;;55.25;23.02;;;4.20;99.90;;;;;;5069196;28;20057;-78
2022/11/22 01:05:06;;;;;;;49.67;23.88;;;4.20;99.90;;;;;;5054075;28;20037;-78
2022/11/22 01:07:32;;;;;;;48.78;23.20;;;4.20;99.90;;;;;;5054078;28;20048;-78
2022/11/22 01:09:58;;;;;;;45.10;22.42;;;4.10;99.90;;;;;;5054826;28;20037;-79
2022/11/22 01:12:23;;;;;;;50.03;21.58;;;4.20;99.90;;;;;;5048374;28;20056;-79
2022/11/22 01:14:49;;;;;;;44.53;21.15;;;4.10;99.90;;;;;;5066790;28;20083;-78
2022/11/22 01:17:15;;;;;;;40.75;20.92;;;4.20;99.90;;;;;;5059980;28;20044;-79
2022/11/22 01:19:41;;;;;;;45.03;21.95;;;4.10;99.90;;;;;;5059805;28;20054;-79
2022/11/22 01:22:06;;;;;;;43.67;20.25;;;4.10;99.90;;;;;;5092563;28;20040;-78
2022/11/22 01:24:32;;;;;;;40.25;18.95;;;4.10;99.90;;;;;;5085943;28;20040;-79
2022/11/22 01:26:57;;;;;;;42.17;20.05;;;4.10;99.90;;;;;;5072058;28;20056;-78
2022/11/22 01:29:23;;;;;;;45.60;21.95;;;4.10;99.90;;;;;;5088112;28;20047;-78
2022/11/22 01:31:49;;;;;;;40.13;20.42;;;4.10;99.90;;;;;;5089144;28;20095;-78
2022/11/22 01:34:15;;;;;;;37.60;20.35;;;4.10;99.90;;;;;;5071479;28;20044;-79
2022/11/22 01:36:40;;;;;;;41.83;20.52;;;4.10;99.90;;;;;;5040877;28;20049;-78
2022/11/22 01:39:06;;;;;;;38.05;19.85;;;4.10;99.90;;;;;;5073099;28;20044;-78
2022/11/22 01:41:32;;;;;;;37.33;18.88;;;4.00;99.90;;;;;;5075157;28;20040;-78
2022/11/22 01:43:57;;;;;;;44.20;20.55;;;4.00;99.90;;;;;;5077140;28;20052;-79
2022/11/22 01:46:33;;;;;;;43.97;19.20;;;4.00;99.90;;;;;;5094083;28;20424;-78
2022/11/22 01:49:03;;;;;;;43.55;19.60;;;4.00;99.90;;;;;;5066972;28;20055;-79
2022/11/22 01:51:35;;;;;;;38.85;19.73;;;4.00;99.90;;;;;;5039971;28;20094;-78
2022/11/22 01:54:06;;;;;;;43.13;20.70;;;4.00;99.90;;;;;;5079653;28;20068;-79
2022/11/22 01:56:34;;;;;;;41.03;19.95;;;4.10;99.90;;;;;;5058628;28;20080;-79
2022/11/22 01:59:05;;;;;;;38.78;19.92;;;4.00;99.90;;;;;;5068524;28;20049;-79
2022/11/22 02:01:31;;;;;;;37.83;19.80;;;4.00;99.90;;;;;;5053027;28;20045;-78
2022/11/22 02:04:00;;;;;;;35.67;19.23;;;4.00;99.90;;;;;;5035379;28;20048;-78
2022/11/22 02:06:53;;;;;;;40.03;20.25;;;4.00;99.90;;;;;;5054992;28;20056;-79
2022/11/22 02:09:20;;;;;;;35.15;19.00;;;4.00;99.90;;;;;;5063418;28;20064;-79
2022/11/22 02:11:49;;;;;;;36.17;19.05;;;4.00;99.90;;;;;;5071873;28;20111;-78
2022/11/22 02:14:19;;;;;;;33.95;18.45;;;4.00;99.90;;;;;;5103527;28;20051;-79
2022/11/22 02:16:47;;;;;;;38.58;21.58;;;4.00;99.90;;;;;;5064955;28;20493;-78
2022/11/22 02:19:39;;;;;;;39.75;19.27;;;4.10;99.90;;;;;;5053099;28;20067;-78
2022/11/22 02:22:30;;;;;;;42.13;20.95;;;4.00;99.90;;;;;;5045730;28;20106;-79
2022/11/22 02:25:17;;;;;;;36.55;18.45;;;4.00;99.90;;;;;;5051179;28;20095;-78
2022/11/22 02:27:43;;;;;;;40.60;20.40;;;4.00;99.90;;;;;;5057686;28;20305;-80
2022/11/22 02:30:09;;;;;;;38.00;19.73;;;4.00;99.90;;;;;;5034922;28;20145;-79
2022/11/22 02:32:35;;;;;;;42.42;20.77;;;3.90;99.90;;;;;;5051573;28;20091;-78
2022/11/22 02:35:01;;;;;;;38.80;20.30;;;3.90;99.90;;;;;;5070105;28;20504;-78
2022/11/22 02:37:31;;;;;;;36.67;19.88;;;3.90;99.90;;;;;;5067789;28;20044;-78
2022/11/22 02:40:04;;;;;;;39.70;20.52;;;4.00;99.90;;;;;;5052238;28;20084;-78
2022/11/22 02:42:31;;;;;;;37.25;19.85;;;3.90;99.90;;;;;;5073059;28;20045;-79
2022/11/22 02:44:57;;;;;;;37.30;20.83;;;3.90;99.90;;;;;;5052026;28;20053;-78
2022/11/22 02:47:22;;;;;;;43.45;22.10;;;4.00;99.90;;;;;;5052018;28;20048;-79
2022/11/22 02:49:48;;;;;;;40.80;20.83;;;3.90;99.90;;;;;;5051933;28;20083;-78
2022/11/22 02:52:17;;;;;;;39.13;20.80;;;3.90;99.90;;;;;;5055005;28;20045;-78
2022/11/22 02:54:43;;;;;;;35.70;19.80;;;4.00;99.90;;;;;;5054868;28;20076;-80
2022/11/22 02:57:09;;;;;;;37.35;19.88;;;4.00;99.90;;;;;;5041700;28;20088;-79
2022/11/22 02:59:35;;;;;;;38.25;21.05;;;4.00;99.90;;;;;;5068994;28;20041;-78
2022/11/22 03:02:00;;;;;;;35.78;18.67;;;4.00;99.90;;;;;;5055942;28;20179;-78
2022/11/22 03:04:26;;;;;;;36.88;20.98;;;4.00;99.90;;;;;;5038178;28;20484;-78
2022/11/22 03:06:54;;;;;;;40.45;20.30;;;4.00;99.90;;;;;;5056372;28;20053;-78
2022/11/22 03:09:20;;;;;;;39.30;19.85;;;4.00;99.90;;;;;;5056894;28;20137;-79
2022/11/22 03:11:46;;;;;;;38.88;20.73;;;4.00;99.90;;;;;;5074254;28;20049;-79
2022/11/22 03:14:14;;;;;;;39.40;21.00;;;4.10;99.90;;;;;;5074643;28;20060;-79
2022/11/22 03:16:40;;;;;;;36.08;19.95;;;4.00;99.90;;;;;;5074567;28;20080;-78
2022/11/22 03:19:06;;;;;;;39.38;21.48;;;4.00;99.90;;;;;;5091506;28;20064;-78
2022/11/22 03:21:32;;;;;;;39.85;21.50;;;4.00;99.90;;;;;;5073417;28;20048;-78
2022/11/22 03:23:57;;;;;;;40.60;21.30;;;4.00;99.90;;;;;;5091019;28;20060;-78
2022/11/22 03:26:23;;;;;;;39.55;21.50;;;4.00;99.90;;;;;;5075399;28;20110;-79
2022/11/22 03:28:49;;;;;;;37.15;20.00;;;4.00;99.90;;;;;;5090781;28;20489;-78
2022/11/22 03:31:14;;;;;;;35.58;20.42;;;4.00;99.90;;;;;;5063987;28;20037;-79
2022/11/22 03:33:40;;;;;;;38.35;20.33;;;4.10;99.90;;;;;;5054113;28;20047;-78
2022/11/22 03:36:06;;;;;;;37.47;21.52;;;4.10;99.90;;;;;;5054334;28;20045;-78
2022/11/22 03:38:33;;;;;;;38.35;21.00;;;4.10;99.90;;;;;;5037409;28;20048;-78
2022/11/22 03:40:59;;;;;;;40.97;22.55;;;4.10;99.90;;;;;;5055075;28;20041;-78
2022/11/22 03:43:25;;;;;;;41.80;22.02;;;4.10;99.90;;;;;;5103476;28;20119;-78
2022/11/22 03:45:51;;;;;;;40.95;21.48;;;4.10;99.90;;;;;;5074067;28;20106;-78
2022/11/22 03:48:17;;;;;;;44.05;22.45;;;4.10;99.90;;;;;;5073989;28;20396;-79
2022/11/22 03:50:42;;;;;;;36.17;20.20;;;4.10;99.90;;;;;;5073623;28;20040;-79
2022/11/22 03:53:08;;;;;;;40.95;21.92;;;4.10;99.90;;;;;;5056191;28;20411;-78
2022/11/22 03:55:34;;;;;;;42.10;21.70;;;4.10;99.90;;;;;;5073679;28;20055;-78
2022/11/22 03:58:00;;;;;;;40.42;21.67;;;4.20;99.90;;;;;;5071310;28;20044;-78
2022/11/22 04:00:25;;;;;;;42.55;22.35;;;4.20;99.90;;;;;;5080467;28;20074;-78
2022/11/22 04:02:51;;;;;;;40.53;22.08;;;4.20;99.90;;;;;;5067081;28;20501;-78
2022/11/22 04:05:17;;;;;;;42.75;22.20;;;4.20;99.90;;;;;;5054482;28;20045;-79
2022/11/22 04:07:42;;;;;;;42.35;22.17;;;4.20;99.90;;;;;;5055951;28;20322;-79
2022/11/22 04:10:08;;;;;;;45.20;22.63;;;4.20;99.90;;;;;;5073023;28;20360;-79
2022/11/22 04:12:35;;;;;;;46.22;23.55;;;4.20;99.90;;;;;;5093716;28;20048;-78
2022/11/22 04:15:06;;;;;;;41.05;22.20;;;4.20;99.90;;;;;;5063515;28;20099;-78
2022/11/22 04:17:39;;;;;;;37.75;21.65;;;4.30;99.90;;;;;;5079990;28;20036;-79
2022/11/22 04:23:01;;;;;;;44.38;22.02;;;4.20;99.90;;;;;;5107326;28;20554;-78
2022/11/22 04:25:28;;;;;;;43.53;22.65;;;4.30;99.90;;;;;;5054113;28;20464;-79
2022/11/22 04:27:55;;;;;;;47.70;23.08;;;4.30;99.90;;;;;;5070920;28;20057;-78
2022/11/22 04:32:44;;;;;;;44.67;23.35;;;4.30;99.90;;;;;;5053182;28;20093;-79
2022/11/22 04:33:07;;;;;;;41.30;22.40;;;4.40;99.90;;;;;;5066715;28;20056;-78
2022/11/22 04:35:33;;;;;;;40.88;22.40;;;4.40;99.90;;;;;;5056461;28;20040;-78
2022/11/22 04:37:58;;;;;;;38.20;22.00;;;4.40;99.90;;;;;;5068573;28;20055;-79
2022/11/22 04:40:24;;;;;;;44.38;24.55;;;4.40;99.90;;;;;;5052602;28;20084;-79
2022/11/22 04:45:34;;;;;;;42.22;23.42;;;4.40;99.90;;;;;;5055290;28;20056;-78
2022/11/22 04:48:00;;;;;;;42.60;22.65;;;4.50;99.90;;;;;;5052893;28;20057;-78
2022/11/22 04:53:12;;;;;;;39.30;23.30;;;4.50;99.90;;;;;;5106826;28;20056;-78
2022/11/22 04:55:39;;;;;;;39.08;22.77;;;4.60;99.90;;;;;;5066163;28;20047;-79
2022/11/22 04:58:04;;;;;;;44.80;23.58;;;4.50;99.90;;;;;;5089539;28;20056;-79
2022/11/22 05:00:31;;;;;;;48.38;24.25;;;4.50;99.90;;;;;;5072330;28;20128;-78
2022/11/22 05:02:57;;;;;;;44.75;24.42;;;4.60;99.90;;;;;;5089625;28;20044;-78
2022/11/22 05:05:24;;;;;;;41.63;23.65;;;4.60;99.90;;;;;;5072465;28;20084;-79
2022/11/22 05:07:49;;;;;;;64.63;26.45;;;4.60;99.90;;;;;;5058349;28;20454;-78
2022/11/22 05:10:15;;;;;;;43.20;25.35;;;4.70;99.90;;;;;;5053390;28;20040;-78
2022/11/22 05:12:41;;;;;;;45.33;23.88;;;4.70;99.90;;;;;;5085220;28;20092;-78
2022/11/22 05:15:09;;;;;;;45.95;25.08;;;4.70;99.90;;;;;;5051321;28;20041;-78
2022/11/22 05:17:37;;;;;;;45.08;24.85;;;4.70;99.90;;;;;;5069482;28;20115;-78
2022/11/22 05:20:04;;;;;;;42.88;24.17;;;4.80;99.90;;;;;;5073345;28;20072;-78
2022/11/22 05:25:14;;;;;;;45.65;24.73;;;4.80;99.90;;;;;;5091564;28;20064;-78
2022/11/22 05:27:39;;;;;;;42.90;24.08;;;4.80;99.90;;;;;;5072244;28;20433;-78
2022/11/22 05:30:06;;;;;;;45.00;22.88;;;4.80;99.90;;;;;;5072375;28;20488;-78
2022/11/22 05:32:32;;;;;;;49.95;24.23;;;4.80;99.90;;;;;;5089002;28;20098;-78
2022/11/22 05:34:58;;;;;;;41.70;23.58;;;4.90;99.90;;;;;;5072351;28;20124;-78
2022/11/22 05:37:24;;;;;;;46.97;24.55;;;4.90;99.90;;;;;;5067108;28;20045;-78
2022/11/22 05:39:50;;;;;;;46.88;24.35;;;4.90;99.90;;;;;;5053373;28;20049;-79
2022/11/22 05:42:17;;;;;;;49.40;24.63;;;4.90;99.90;;;;;;5053280;28;20102;-78
2022/11/22 05:44:42;;;;;;;48.30;25.50;;;4.90;99.90;;;;;;5069591;28;20044;-78
2022/11/22 05:47:09;;;;;;;45.08;23.92;;;4.90;99.90;;;;;;5036073;28;20048;-79
2022/11/22 05:49:35;;;;;;;45.17;24.30;;;4.90;99.90;;;;;;5042605;28;20052;-78
2022/11/22 05:52:01;;;;;;;45.42;23.90;;;4.90;99.90;;;;;;5035549;28;20049;-79
2022/11/22 05:54:28;;;;;;;44.05;25.15;;;4.90;99.90;;;;;;5068527;28;20114;-81
2022/11/22 05:56:53;;;;;;;46.40;24.42;;;5.00;99.90;;;;;;5068453;28;20048;-79
2022/11/22 05:59:19;;;;;;;49.25;24.92;;;5.00;99.90;;;;;;5104574;28;20044;-78
2022/11/22 06:01:45;;;;;;;45.70;24.02;;;5.00;99.90;;;;;;5058197;28;20384;-78
2022/11/22 06:04:10;;;;;;;42.05;23.23;;;5.00;99.90;;;;;;5052838;28;20051;-79
2022/11/22 06:06:36;;;;;;;45.90;24.63;;;5.00;99.90;;;;;;5056221;28;20041;-78
2022/11/22 06:09:02;;;;;;;44.97;24.63;;;5.00;99.90;;;;;;5053352;28;20436;-81
2022/11/22 06:11:28;;;;;;;41.42;23.10;;;5.00;99.90;;;;;;5071515;28;20401;-78
2022/11/22 06:13:56;;;;;;;44.05;23.98;;;5.00;99.90;;;;;;5072620;28;20053;-78
2022/11/22 06:16:22;;;;;;;45.72;23.00;;;5.00;99.90;;;;;;5071672;28;20049;-78
2022/11/22 06:18:48;;;;;;;41.35;22.50;;;5.00;99.90;;;;;;5088723;28;20059;-78
2022/11/22 06:21:22;;;;;;;43.72;22.95;;;5.00;99.90;;;;;;5057429;28;20053;-78
2022/11/22 06:23:48;;;;;;;46.25;22.52;;;5.10;99.90;;;;;;5068308;28;20503;-79
2022/11/22 06:26:17;;;;;;;45.90;23.83;;;5.10;99.90;;;;;;5074290;28;20067;-78
2022/11/22 06:28:43;;;;;;;40.50;22.88;;;5.10;99.90;;;;;;5067038;28;20178;-78
2022/11/22 06:31:11;;;;;;;48.28;22.50;;;5.00;99.90;;;;;;5071845;28;20511;-78
2022/11/22 06:33:37;;;;;;;45.63;22.52;;;5.10;99.90;;;;;;5056344;28;20045;-78
2022/11/22 06:36:06;;;;;;;41.22;22.60;;;5.00;99.90;;;;;;5056205;28;20130;-78
2022/11/22 06:38:32;;;;;;;41.15;22.40;;;5.00;99.90;;;;;;5042270;28;20045;-78
2022/11/22 06:41:06;;;;;;;42.08;22.75;;;5.00;99.90;;;;;;5071668;28;20099;-78
2022/11/22 06:43:33;;;;;;;40.40;21.30;;;5.00;99.90;;;;;;5072156;28;20056;-78
2022/11/22 06:46:00;;;;;;;40.22;21.42;;;5.00;99.90;;;;;;5071879;28;20040;-78
2022/11/22 06:48:29;;;;;;;43.97;20.45;;;5.00;99.90;;;;;;5056530;28;20444;-78
2022/11/22 06:51:12;;;;;;;40.80;20.17;;;4.90;99.90;;;;;;5055986;28;20115;-78
2022/11/22 06:53:38;;;;;;;42.25;21.35;;;4.80;99.90;;;;;;5055907;28;20037;-78
2022/11/22 06:56:08;;;;;;;36.90;18.90;;;4.80;99.90;;;;;;5054836;28;20136;-78
2022/11/22 06:58:35;;;;;;;37.03;20.38;;;4.80;99.90;;;;;;5068117;28;20485;-79
2022/11/22 07:01:06;;;;;;;40.63;19.85;;;4.70;99.90;;;;;;5058233;28;20040;-78
2022/11/22 07:03:34;;;;;;;43.67;20.65;;;4.70;99.90;;;;;;5074926;28;20083;-78
2022/11/22 07:06:00;;;;;;;38.97;19.83;;;4.60;99.90;;;;;;5061806;28;20044;-78
2022/11/22 07:08:26;;;;;;;39.72;19.50;;;4.60;99.90;;;;;;5071664;28;20139;-78
2022/11/22 07:10:52;;;;;;;37.20;19.30;;;4.50;99.90;;;;;;5054651;28;20052;-78
2022/11/22 07:13:18;;;;;;;41.28;19.67;;;4.50;99.90;;;;;;5071478;28;20470;-78
2022/11/22 07:15:56;;;;;;;34.35;18.48;;;4.50;99.90;;;;;;5060813;28;20053;-81
2022/11/22 07:18:22;;;;;;;38.03;17.50;;;4.60;99.90;;;;;;5041614;28;20036;-79
2022/11/22 07:20:48;;;;;;;42.28;18.70;;;4.60;99.90;;;;;;5066345;28;20489;-79
2022/11/22 07:23:14;;;;;;;37.95;18.50;;;4.70;99.90;;;;;;5054694;28;20088;-80
2022/11/22 07:25:47;;;;;;;38.10;18.25;;;4.70;99.90;;;;;;5079048;28;20053;-82
2022/11/22 07:28:14;;;;;;;42.47;19.02;;;4.80;99.90;;;;;;5109257;27;20072;-78
2022/11/22 07:30:40;;;;;;;34.03;17.25;;;4.90;99.90;;;;;;5053990;28;20049;-81
2022/11/22 07:33:06;;;;;;;40.20;17.63;;;4.80;99.90;;;;;;5055462;28;20140;-78
2022/11/22 07:35:32;;;;;;;33.38;15.95;;;4.90;99.90;;;;;;5108707;28;20119;-80
2022/11/22 07:37:57;;;;;;;32.80;16.25;;;4.90;99.90;;;;;;5093195;28;20123;-78
2022/11/22 07:40:23;;;;;;;38.15;15.93;;;5.00;99.90;;;;;;5076434;28;20077;-79
2022/11/22 07:42:49;;;;;;;33.95;15.10;;;5.10;99.90;;;;;;5075177;28;20499;-81
2022/11/22 07:45:14;;;;;;;33.33;15.60;;;5.00;99.90;;;;;;5110056;28;20119;-79
2022/11/22 07:47:40;;;;;;;32.90;14.85;;;5.10;99.90;;;;;;5060814;28;20043;-79
2022/11/22 07:50:06;;;;;;;33.20;14.65;;;5.10;99.90;;;;;;5094421;28;20144;-79
2022/11/22 07:52:32;;;;;;;25.00;13.02;;;5.20;99.90;;;;;;5080092;28;20048;-80
2022/11/22 07:54:57;;;;;;;28.73;13.73;;;5.20;99.90;;;;;;5074020;28;20069;-79
2022/11/22 07:57:23;;;;;;;26.05;13.23;;;5.20;99.90;;;;;;5073595;28;20056;-79
2022/11/22 07:59:49;;;;;;;30.35;14.30;;;5.20;99.90;;;;;;5091592;28;20126;-79
2022/11/22 08:02:14;;;;;;;29.10;12.77;;;5.20;99.90;;;;;;5097877;28;20053;-82
2022/11/22 08:04:40;;;;;;;25.50;11.30;;;5.20;99.90;;;;;;5054255;28;20124;-79
2022/11/22 08:07:06;;;;;;;32.72;11.65;;;5.20;99.90;;;;;;5054569;28;20049;-79
2022/11/22 08:09:31;;;;;;;20.92;10.40;;;5.20;99.90;;;;;;5045330;28;20068;-79
2022/11/22 08:11:57;;;;;;;25.48;10.57;;;5.20;99.90;;;;;;5073336;28;20060;-80
2022/11/22 08:14:23;;;;;;;24.17;10.73;;;5.20;99.90;;;;;;5073626;28;20130;-79
2022/11/22 08:16:49;;;;;;;22.08;9.60;;;5.20;99.90;;;;;;5071650;28;20049;-80
2022/11/22 08:19:16;;;;;;;24.67;9.30;;;5.20;99.90;;;;;;5091454;28;20053;-79
2022/11/22 08:21:43;;;;;;;18.98;8.05;;;5.10;99.90;;;;;;5069779;28;20045;-79
2022/11/22 08:24:09;;;;;;;23.50;9.10;;;5.20;99.90;;;;;;5069468;28;20401;-79
2022/11/22 08:26:35;;;;;;;20.50;7.53;;;5.10;99.90;;;;;;5070145;28;20080;-79
2022/11/22 08:29:09;;;;;;;29.25;8.98;;;5.10;99.90;;;;;;5083058;28;20052;-80
2022/11/22 08:31:36;;;;;;;22.05;7.20;;;5.20;99.90;;;;;;5072772;28;20041;-79
2022/11/22 08:34:01;;;;;;;20.42;6.85;;;5.20;99.90;;;;;;5072876;28;20481;-79
2022/11/22 08:36:27;;;;;;;21.08;6.38;;;5.10;99.90;;;;;;5073229;28;20056;-80
2022/11/22 08:38:53;;;;;;;20.10;6.00;;;5.20;99.90;;;;;;5107889;28;20075;-80
2022/11/22 08:41:19;;;;;;;22.15;6.63;;;5.10;99.90;;;;;;5084269;28;20048;-79
2022/11/22 08:43:45;;;;;;;18.08;5.90;;;5.20;99.90;;;;;;5093467;28;20388;-80
2022/11/22 08:46:10;;;;;;;19.98;6.50;;;5.20;99.90;;;;;;5071687;28;20518;-80
2022/11/22 08:48:37;;;;;;;14.05;5.45;;;5.20;99.90;;;;;;5054542;28;20131;-80
2022/11/22 08:51:05;;;;;;;18.83;5.85;;;5.20;99.90;;;;;;5072080;28;20127;-80
2022/11/22 08:53:33;;;;;;;16.70;5.65;;;5.20;99.90;;;;;;5067100;28;20396;-80
2022/11/22 08:56:00;;;;;;;12.73;4.55;;;5.20;99.90;;;;;;5074271;28;20048;-81
2022/11/22 08:58:27;;;;;;;23.98;7.10;;;5.10;99.90;;;;;;5071042;28;20049;-84
2022/11/22 09:00:53;;;;;;;13.52;5.15;;;5.10;99.90;;;;;;5060080;28;20072;-81
2022/11/22 09:03:19;;;;;;;19.40;5.22;;;5.10;99.90;;;;;;5054577;28;20535;-82
2022/11/22 09:05:44;;;;;;;18.75;5.25;;;5.20;99.90;;;;;;5063296;28;20484;-79
2022/11/22 09:08:10;;;;;;;15.80;5.78;;;5.20;99.90;;;;;;5071281;28;20040;-80
2022/11/22 09:10:36;;;;;;;20.60;6.05;;;5.10;99.90;;;;;;5070496;28;20094;-80
2022/11/22 09:13:01;;;;;;;16.95;5.20;;;5.20;99.90;;;;;;5054511;28;20041;-79
2022/11/22 09:15:27;;;;;;;17.05;4.82;;;5.20;99.90;;;;;;5068854;28;20125;-80
2022/11/22 09:18:00;;;;;;;14.80;5.00;;;5.20;99.90;;;;;;5071811;28;20055;-80
2022/11/22 09:20:26;;;;;;;19.38;5.00;;;5.20;99.90;;;;;;5070441;28;20109;-79
2022/11/22 09:22:52;;;;;;;20.50;4.72;;;5.20;99.90;;;;;;5071479;28;20484;-83
2022/11/22 09:25:18;;;;;;;16.60;4.88;;;5.20;99.90;;;;;;5070998;28;20044;-79
2022/11/22 09:27:44;;;;;;;11.00;4.78;;;5.20;99.90;;;;;;5054015;28;20044;-79
2022/11/22 09:30:10;;;;;;;16.63;4.93;;;5.30;99.90;;;;;;5071065;28;20506;-79
2022/11/22 09:32:36;;;;;;;16.88;5.18;;;5.30;99.90;;;;;;5054635;28;20071;-80
2022/11/22 09:35:01;;;;;;;13.68;4.88;;;5.30;99.90;;;;;;5070815;28;20048;-80
2022/11/22 09:37:27;;;;;;;16.98;5.07;;;5.30;99.90;;;;;;5101254;28;20063;-79
2022/11/22 09:39:53;;;;;;;13.48;4.60;;;5.30;99.90;;;;;;5063141;28;20390;-80
2022/11/22 09:42:37;;;;;;;15.00;4.40;;;5.40;99.90;;;;;;5049770;28;20049;-80
2022/11/22 09:45:08;;;;;;;11.82;4.28;;;5.40;99.90;;;;;;5049472;28;20044;-81
2022/11/22 09:47:46;;;;;;;13.30;4.20;;;5.40;99.90;;;;;;5065959;28;20053;-79
2022/11/22 09:50:47;;;;;;;15.40;4.30;;;5.40;99.90;;;;;;5081208;28;20384;-84
2022/11/22 09:53:21;;;;;;;15.02;4.35;;;5.40;99.90;;;;;;5072531;28;20147;-80
2022/11/22 09:55:50;;;;;;;11.55;4.10;;;5.40;99.90;;;;;;5102482;28;20056;-82
2022/11/22 09:58:32;;;;;;;12.80;4.15;;;5.40;99.90;;;;;;5099546;28;20048;-85
2022/11/22 10:01:20;;;;;;;11.95;4.53;;;5.40;99.90;;;;;;5087099;28;20040;-80
2022/11/22 10:03:51;;;;;;;12.05;3.72;;;5.40;99.90;;;;;;5073359;28;20049;-80
2022/11/22 10:06:39;;;;;;;10.82;3.70;;;5.40;99.90;;;;;;5057607;28;20067;-81
2022/11/22 10:09:21;;;;;;;17.02;3.65;;;5.40;99.90;;;;;;5072309;28;20056;-82
2022/11/22 10:11:54;;;;;;;9.20;3.72;;;5.50;99.90;;;;;;5051656;28;20045;-81
2022/11/22 10:14:38;;;;;;;13.13;4.22;;;5.50;99.90;;;;;;5080023;28;20063;-78
2022/11/22 10:17:43;;;;;;;13.73;4.10;;;5.50;99.90;;;;;;5070542;28;20048;-78
2022/11/22 10:20:17;;;;;;;11.05;4.20;;;5.50;99.90;;;;;;5072285;28;20110;-78
2022/11/22 10:22:43;;;;;;;11.07;3.70;;;5.60;99.90;;;;;;5069055;28;20056;-79
2022/11/22 10:25:21;;;;;;;15.98;3.78;;;5.60;99.90;;;;;;5057211;28;20060;-78
2022/11/22 10:27:59;;;;;;;14.50;5.50;;;5.60;99.90;;;;;;5078182;28;20106;-80
2022/11/22 10:30:29;;;;;;;9.52;3.88;;;5.70;99.90;;;;;;5073240;28;20124;-80
2022/11/22 10:33:05;;;;;;;10.88;4.05;;;5.70;99.90;;;;;;5074890;28;20044;-79
2022/11/22 10:36:00;;;;;;;7.82;3.55;;;5.70;99.90;;;;;;5073840;28;20373;-79
2022/11/22 10:38:32;;;;;;;17.13;4.50;;;5.60;99.90;;;;;;5103580;28;20174;-80
2022/11/22 10:41:26;;;;;;;11.18;3.78;;;5.70;99.90;;;;;;5072669;28;20055;-80
2022/11/22 10:44:13;;;;;;;10.35;3.70;;;5.70;99.90;;;;;;5071083;28;20071;-80
2022/11/22 10:47:00;;;;;;;10.52;3.70;;;5.70;99.90;;;;;;5073751;28;20060;-81
2022/11/22 10:49:56;;;;;;;9.82;3.15;;;5.80;99.90;;;;;;5072795;28;20172;-82
2022/11/22 10:52:27;;;;;;;11.48;3.10;;;5.80;99.90;;;;;;5054768;28;20135;-82
2022/11/22 10:54:53;;;;;;;12.93;3.63;;;5.80;99.90;;;;;;5057074;28;20074;-80
2022/11/22 10:57:32;;;;;;;12.68;3.45;;;5.80;99.90;;;;;;5070826;28;20048;-80
2022/11/22 11:00:26;;;;;;;14.18;3.70;;;5.90;99.90;;;;;;5069826;28;20052;-79
2022/11/22 11:03:24;;;;;;;9.80;3.45;;;5.90;99.90;;;;;;5080242;28;20097;-78
2022/11/22 11:06:11;;;;;;;8.70;2.88;;;5.90;99.90;;;;;;5087065;28;20561;-81
2022/11/22 11:08:44;;;;;;;8.80;3.95;;;5.90;99.90;;;;;;5073586;28;20503;-81
2022/11/22 11:11:12;;;;;;;12.10;3.67;;;6.00;99.90;;;;;;5073826;28;20049;-81
2022/11/22 11:13:46;;;;;;;12.55;3.47;;;6.00;99.90;;;;;;5067144;28;20059;-81
2022/11/22 11:16:19;;;;;;;13.70;3.05;;;6.00;99.90;;;;;;5076542;28;20056;-80
2022/11/22 11:19:18;;;;;;;9.70;3.15;;;6.00;99.90;;;;;;5073192;28;20056;-83
2022/11/22 11:21:44;;;;;;;9.70;2.90;;;6.00;99.90;;;;;;5106437;28;20041;-80
2022/11/22 11:24:15;;;;;;;9.95;3.08;;;6.00;99.90;;;;;;5072995;28;20055;-78
2022/11/22 11:26:52;;;;;;;9.15;3.05;;;6.00;99.90;;;;;;5073296;28;20063;-79
2022/11/22 11:29:18;;;;;;;10.40;3.28;;;6.10;99.90;;;;;;5073770;28;20040;-79
2022/11/22 11:31:47;;;;;;;10.43;3.22;;;6.10;99.90;;;;;;5068124;28;20059;-79
2022/11/22 11:34:26;;;;;;;9.57;3.00;;;6.10;99.90;;;;;;5091517;28;20526;-79
2022/11/22 11:36:55;;;;;;;8.57;2.85;;;6.10;99.90;;;;;;5057258;28;20503;-80
2022/11/22 11:39:26;;;;;;;11.55;2.90;;;6.00;99.90;;;;;;5085762;28;20049;-80
2022/11/22 11:41:53;;;;;;;13.43;3.25;;;6.10;99.90;;;;;;5073570;28;20082;-80
2022/11/22 11:44:34;;;;;;;12.45;3.38;;;6.10;99.90;;;;;;5072415;28;20097;-80
2022/11/22 11:47:04;;;;;;;7.07;3.00;;;6.10;99.90;;;;;;5091048;28;20481;-80
2022/11/22 11:49:32;;;;;;;11.40;2.95;;;6.10;99.90;;;;;;5073316;28;20045;-81
2022/11/22 11:52:01;;;;;;;9.43;3.05;;;6.10;99.90;;;;;;5055778;28;20071;-80
2022/11/22 11:54:44;;;;;;;12.93;3.00;;;6.20;99.90;;;;;;5076633;28;20040;-80
2022/11/22 11:57:14;;;;;;;9.65;2.53;;;6.20;99.90;;;;;;5093575;28;20097;-81
2022/11/22 11:59:44;;;;;;;8.18;2.85;;;6.30;99.90;;;;;;5075283;28;20477;-80
2022/11/22 12:02:12;;;;;;;7.53;2.22;;;6.30;99.90;;;;;;5073114;28;20056;-81
2022/11/22 12:05:00;;;;;;;9.45;3.20;;;6.40;99.90;;;;;;5057694;28;20546;-80
2022/11/22 12:07:46;;;;;;;8.63;2.40;;;6.50;99.90;;;;;;5075861;28;20058;-80
2022/11/22 12:10:36;;;;;;;11.52;2.55;;;6.50;99.90;;;;;;5069496;28;20052;-81
2022/11/22 12:13:10;;;;;;;7.95;2.30;;;6.50;99.90;;;;;;5053124;28;20049;-84
2022/11/22 12:16:01;;;;;;;8.27;2.55;;;6.50;99.90;;;;;;5070204;28;20044;-80
2022/11/22 12:18:42;;;;;;;9.38;2.42;;;6.60;99.90;;;;;;5072334;28;20194;-80
2022/11/22 12:21:15;;;;;;;9.32;2.53;;;6.60;99.90;;;;;;5072899;28;20048;-80
2022/11/22 12:23:46;;;;;;;7.18;2.08;;;6.60;99.90;;;;;;5072823;28;20049;-80
2022/11/22 12:26:13;;;;;;;12.00;2.60;;;6.60;99.90;;;;;;5072331;28;20052;-84
2022/11/22 12:28:39;;;;;;;5.70;1.92;;;6.60;99.90;;;;;;5063605;28;20128;-80
2022/11/22 12:31:27;;;;;;;9.45;2.28;;;6.70;99.90;;;;;;5068418;28;20088;-80
2022/11/22 12:34:00;;;;;;;9.18;2.72;;;6.60;99.90;;;;;;5090686;28;20048;-80
2022/11/22 12:36:32;;;;;;;6.32;1.92;;;6.70;99.90;;;;;;5069619;28;20083;-81
2022/11/22 12:39:03;;;;;;;14.48;2.50;;;6.70;99.90;;;;;;5051811;28;20055;-80
2022/11/22 12:41:32;;;;;;;7.43;2.80;;;6.80;99.90;;;;;;5072557;28;20399;-80
2022/11/22 12:44:02;;;;;;;9.88;1.83;;;6.90;99.90;;;;;;5103190;28;20084;-80
2022/11/22 12:46:53;;;;;;;6.60;1.98;;;6.80;99.90;;;;;;5085077;28;20052;-82
2022/11/22 12:49:42;;;;;;;6.57;2.38;;;6.80;99.90;;;;;;5066134;28;20044;-82
2022/11/22 12:52:17;;;;;;;8.80;2.78;;;6.90;99.90;;;;;;5072089;28;20436;-81
2022/11/22 12:54:58;;;;;;;7.47;2.10;;;6.90;99.90;;;;;;5052919;28;20059;-82
2022/11/22 12:57:37;;;;;;;7.85;1.63;;;6.90;99.90;;;;;;5069603;28;20480;-81
2022/11/22 13:00:13;;;;;;;9.68;2.05;;;6.80;99.90;;;;;;5093583;28;20530;-81
2022/11/22 13:02:41;;;;;;;5.30;1.92;;;6.80;99.90;;;;;;5071004;28;20051;-82
2022/11/22 13:05:20;;;;;;;7.82;2.15;;;6.80;99.90;;;;;;5088429;28;20055;-82